Skip Navigation LinksHome page > Weather > Current weather Skip Navigation Links

Current Weather

Central Park, New York

For information only: do not use for flight planning or navigation.
Latest weather
Observation time Saturday, August 23, 2014 2:51 PM EDT
Local time Saturday, August 23, 2014 3:16 PM EDT
Flight conditions Visual Meteorological Conditions
Winds
Wind direction Northeast (50°)
Wind speed 7 mph
Visibility 10 mi.
Sky condition
Ceiling 12,000 ft. broken clouds
Cloud layer few clouds 10,000 ft.
Cloud layer broken clouds 12,000 ft.
Temperature 76°F
Dewpoint 55°F
Altimeter 30.11 in.Hg
Derived measurements
Relative humidity 48%
Density altitude 1240 ft.
Sea-level pressure 30.08 in.Hg
Remarks
Fully automated report.
System requires maintenance.
Automated weather observing station with precipitation discriminator.
METAR KNYC 231851Z AUTO 05006KT 10SM FEW100 BKN120 24/13 A3011 RMK AO2 SLP187 T02440128 $

Settings

Location code

InnerDrive.Weather 4.0.5341.0 Release CLR 4.0.30319.34014
Copyright ©2014 Inner Drive Technology. All rights reserved. Portions Copyright ©1986-2014 David Braverman.

Find weather

Site navigation


Skip Navigation Links

Place info

Page info

PayPal - The safer, easier way to pay online!

Return home.

Copyright ©2014 Inner Drive Technology. Purveyors of fine, hand-crafted computer software. Page printed 2014-08-23T19:16:55 UTC.